createdAt,value
2023-05-21T00:01:10.757Z,101209.66
2023-05-21T00:03:42.352Z,101212.50
2023-05-21T00:06:09.818Z,101207.25
2023-05-21T00:08:37.348Z,101199.84
2023-05-21T00:11:04.751Z,101212.50
2023-05-21T00:13:32.304Z,101206.81
2023-05-21T00:15:59.619Z,101204.81
2023-05-21T00:18:27.603Z,101198.13
2023-05-21T00:20:54.856Z,101202.41
2023-05-21T00:23:22.403Z,101198.69
2023-05-21T00:25:50.578Z,101199.72
2023-05-21T00:28:18.610Z,101194.28
2023-05-21T00:30:45.951Z,101203.41
2023-05-21T00:33:13.987Z,101211.78
2023-05-21T00:35:41.416Z,101212.94
2023-05-21T00:38:09.060Z,101205.94
2023-05-21T00:40:36.640Z,101202.09
2023-05-21T00:43:04.554Z,101209.81
2023-05-21T00:45:31.866Z,101199.84
2023-05-21T00:47:59.835Z,101195.28
2023-05-21T00:50:27.917Z,101193.75
2023-05-21T00:52:55.413Z,101198.84
2023-05-21T00:55:22.950Z,101203.97
2023-05-21T00:57:50.657Z,101201.00
2023-05-21T01:00:17.987Z,101206.81
2023-05-21T01:02:46.344Z,101202.53
2023-05-21T01:05:15.504Z,101211.34
2023-05-21T01:07:43.477Z,101198.56
2023-05-21T01:10:11.834Z,101217.47
2023-05-21T01:12:41.875Z,101218.63
2023-05-21T01:15:11.126Z,101216.06
2023-05-21T01:17:39.926Z,101213.66
2023-05-21T01:20:10.657Z,101215.19
2023-05-21T01:22:44.028Z,101203.13
2023-05-21T01:25:12.020Z,101211.09
2023-05-21T01:27:39.584Z,101210.50
2023-05-21T01:30:08.541Z,101204.25
2023-05-21T01:32:42.211Z,101207.81
2023-05-21T01:35:17.573Z,101202.41
2023-05-21T01:38:03.234Z,101201.41
2023-05-21T01:40:45.925Z,101199.69
2023-05-21T01:43:15.477Z,101199.69
2023-05-21T01:45:45.431Z,101205.09
2023-05-21T01:48:14.107Z,101198.28
2023-05-21T01:50:43.702Z,101201.41
2023-05-21T01:53:11.316Z,101205.94
2023-05-21T01:55:42.017Z,101201.91
2023-05-21T01:58:10.241Z,101206.59
2023-05-21T02:00:37.599Z,101207.03
2023-05-21T02:03:05.461Z,101193.94
2023-05-21T02:05:32.829Z,101198.50
2023-05-21T02:08:01.647Z,101201.06
2023-05-21T02:10:28.967Z,101200.31
2023-05-21T02:12:56.511Z,101202.44
2023-05-21T02:15:25.068Z,101199.34
2023-05-21T02:17:53.145Z,101191.06
2023-05-21T02:20:22.416Z,101190.81
2023-05-21T02:22:50.415Z,101191.06
2023-05-21T02:25:19.802Z,101197.06
2023-05-21T02:27:52.856Z,101199.63
2023-05-21T02:30:20.359Z,101204.47
2023-05-21T02:32:48.858Z,101201.06
2023-05-21T02:35:16.721Z,101203.91
2023-05-21T02:37:44.568Z,101204.78
2023-05-21T02:40:13.014Z,101209.38
2023-05-21T02:42:41.617Z,101213.06
2023-05-21T02:45:12.503Z,101199.56
2023-05-21T02:47:43.013Z,101203.69
2023-05-21T02:50:10.542Z,101196.13
2023-05-21T02:52:45.062Z,101196.94
2023-05-21T02:55:12.366Z,101198.19
2023-05-21T02:57:40.103Z,101201.84
2023-05-21T03:00:08.898Z,101201.28
2023-05-21T03:02:37.841Z,101206.66
2023-05-21T03:05:05.688Z,101206.09
2023-05-21T03:07:34.388Z,101201.69
2023-05-21T03:10:02.070Z,101196.66
2023-05-21T03:12:31.361Z,101190.34
2023-05-21T03:14:59.859Z,101191.16
2023-05-21T03:17:30.106Z,101194.47
2023-05-21T03:19:57.446Z,101195.03
2023-05-21T03:22:25.053Z,101189.47
2023-05-21T03:24:53.574Z,101185.25
2023-05-21T03:27:21.460Z,101183.13
2023-05-21T03:29:48.815Z,101193.53
2023-05-21T03:32:17.373Z,101189.38
2023-05-21T03:34:47.059Z,101190.88
2023-05-21T03:37:16.134Z,101189.03
2023-05-21T03:39:43.448Z,101185.25
2023-05-21T03:42:11.105Z,101200.50
2023-05-21T03:44:44.227Z,101194.78
2023-05-21T03:47:37.925Z,101181.56
2023-05-21T03:50:09.532Z,101172.91
2023-05-21T03:52:37.708Z,101193.75
2023-05-21T03:55:06.302Z,101178.00
2023-05-21T03:57:34.151Z,101180.06
2023-05-21T04:00:01.483Z,101184.41
2023-05-21T04:02:30.555Z,101171.78
2023-05-21T04:04:58.555Z,101167.22
2023-05-21T04:07:27.346Z,101165.97
2023-05-21T04:09:54.582Z,101181.34
2023-05-21T04:12:22.503Z,101171.63
2023-05-21T04:14:49.881Z,101176.88
2023-05-21T04:17:19.290Z,101169.50
2023-05-21T04:19:46.748Z,101168.84
2023-05-21T04:22:14.708Z,101165.97
2023-05-21T04:24:42.736Z,101175.31
2023-05-21T04:27:18.115Z,101175.78
2023-05-21T04:29:45.727Z,101183.34
2023-05-21T04:32:15.344Z,101179.47
2023-05-21T04:34:43.072Z,101176.00
2023-05-21T04:37:10.913Z,101164.53
2023-05-21T04:39:38.501Z,101184.44
2023-05-21T04:42:06.047Z,101169.03
2023-05-21T04:44:33.884Z,101170.09
2023-05-21T04:47:02.366Z,101174.88
2023-05-21T04:49:30.212Z,101173.16
2023-05-21T04:51:59.225Z,101173.91
2023-05-21T04:54:26.654Z,101167.44
2023-05-21T04:56:54.557Z,101170.03
2023-05-21T04:59:22.958Z,101167.09
2023-05-21T05:01:50.647Z,101163.28
2023-05-21T05:04:17.927Z,101164.28
2023-05-21T05:06:45.508Z,101160.50
2023-05-21T05:09:13.017Z,101169.88
2023-05-21T05:11:40.731Z,101172.56
2023-05-21T05:14:08.014Z,101165.91
2023-05-21T05:16:36.486Z,101165.94
2023-05-21T05:19:04.092Z,101175.66
2023-05-21T05:21:31.906Z,101183.19
2023-05-21T05:24:00.054Z,101184.97
2023-05-21T05:26:30.234Z,101173.66
2023-05-21T05:28:57.548Z,101188.00
2023-05-21T05:31:25.328Z,101191.56
2023-05-21T05:33:53.790Z,101180.25
2023-05-21T05:36:22.953Z,101190.69
2023-05-21T05:38:50.305Z,101179.34
2023-05-21T05:41:17.993Z,101178.00
2023-05-21T05:43:45.510Z,101178.00
2023-05-21T05:46:13.477Z,101194.41
2023-05-21T05:48:40.786Z,101197.59
2023-05-21T05:51:08.506Z,101179.88
2023-05-21T05:53:36.305Z,101193.81
2023-05-21T05:56:04.433Z,101190.91
2023-05-21T05:58:31.827Z,101190.72
2023-05-21T06:01:13.783Z,101195.66
2023-05-21T06:03:41.513Z,101193.34
2023-05-21T06:06:15.731Z,101186.00
2023-05-21T06:08:43.511Z,101182.38
2023-05-21T06:11:11.577Z,101180.38
2023-05-21T06:13:38.909Z,101181.28
2023-05-21T06:16:07.780Z,101193.41
2023-05-21T06:18:35.093Z,101189.28
2023-05-21T06:21:02.718Z,101195.47
2023-05-21T06:23:32.307Z,101200.75
2023-05-21T06:26:00.848Z,101187.38
2023-05-21T06:28:28.459Z,101185.66
2023-05-21T06:30:56.276Z,101198.13
2023-05-21T06:33:23.735Z,101191.03
2023-05-21T06:35:51.505Z,101187.19
2023-05-21T06:38:18.784Z,101189.00
2023-05-21T06:40:47.973Z,101184.66
2023-05-21T06:43:24.912Z,101192.34
2023-05-21T06:46:12.821Z,101188.50
2023-05-21T06:48:41.238Z,101194.16
2023-05-21T06:51:08.863Z,101187.69
2023-05-21T06:53:36.202Z,101183.16
2023-05-21T06:56:04.023Z,101192.53
2023-05-21T06:58:41.159Z,101184.31
2023-05-21T07:01:08.860Z,101189.78
2023-05-21T07:03:36.692Z,101185.38
2023-05-21T07:06:04.355Z,101187.97
2023-05-21T07:08:31.716Z,101178.63
2023-05-21T07:11:00.345Z,101184.69
2023-05-21T07:13:27.861Z,101177.28
2023-05-21T07:15:56.016Z,101181.69
2023-05-21T07:18:23.287Z,101186.97
2023-05-21T07:20:51.043Z,101183.63
2023-05-21T07:23:18.721Z,101172.06
2023-05-21T07:25:47.342Z,101171.81
2023-05-21T07:28:15.104Z,101167.91
2023-05-21T07:30:43.883Z,101163.53
2023-05-21T07:33:14.978Z,101172.56
2023-05-21T07:35:42.850Z,101165.00
2023-05-21T07:38:10.227Z,101178.47
2023-05-21T07:40:38.130Z,101171.94
2023-05-21T07:43:05.551Z,101162.53
2023-05-21T07:45:34.986Z,101161.03
2023-05-21T07:48:03.004Z,101173.88
2023-05-21T07:50:32.811Z,101168.44
2023-05-21T07:53:00.804Z,101160.69
2023-05-21T07:55:28.471Z,101160.75
2023-05-21T07:57:56.514Z,101165.75
2023-05-21T08:00:28.957Z,101163.13
2023-05-21T08:02:58.085Z,101163.44
2023-05-21T08:05:26.792Z,101159.47
2023-05-21T08:07:54.111Z,101174.22
2023-05-21T08:10:22.868Z,101174.09
2023-05-21T08:12:52.240Z,101166.19
2023-05-21T08:15:21.811Z,101168.28
2023-05-21T08:17:49.735Z,101163.03
2023-05-21T08:20:17.863Z,101165.72
2023-05-21T08:22:46.240Z,101160.66
2023-05-21T08:25:13.984Z,101169.91
2023-05-21T08:27:42.786Z,101162.94
2023-05-21T08:30:11.753Z,101175.63
2023-05-21T08:32:39.175Z,101153.06
2023-05-21T08:35:08.517Z,101174.59
2023-05-21T08:37:59.612Z,101166.94
2023-05-21T08:40:51.698Z,101163.78
2023-05-21T08:43:19.480Z,101171.88
2023-05-21T08:45:57.385Z,101162.88
2023-05-21T08:48:27.819Z,101160.66
2023-05-21T08:50:55.750Z,101153.97
2023-05-21T08:53:33.535Z,101153.97
2023-05-21T08:56:02.618Z,101163.91
2023-05-21T08:58:42.684Z,101152.78
2023-05-21T09:01:12.579Z,101142.13
2023-05-21T09:03:43.929Z,101160.41
2023-05-21T09:06:14.313Z,101153.31
2023-05-21T09:08:47.299Z,101148.78
2023-05-21T09:11:38.016Z,101143.13
2023-05-21T09:14:05.839Z,101143.94
2023-05-21T09:16:59.594Z,101143.94
2023-05-21T09:19:29.312Z,101152.75
2023-05-21T09:22:02.662Z,101139.53
2023-05-21T09:24:33.730Z,101134.47
2023-05-21T09:27:07.140Z,101138.94
2023-05-21T09:29:35.619Z,101137.19
2023-05-21T09:32:08.063Z,101142.84
2023-05-21T09:34:38.032Z,101133.13
2023-05-21T09:37:16.455Z,101144.56
2023-05-21T09:39:48.021Z,101139.50
2023-05-21T09:42:16.375Z,101144.81
2023-05-21T09:44:44.327Z,101139.63
2023-05-21T09:47:12.279Z,101144.38
2023-05-21T09:49:39.554Z,101148.25
2023-05-21T09:52:07.087Z,101138.47
2023-05-21T09:54:35.051Z,101142.44
2023-05-21T09:57:03.088Z,101134.31
2023-05-21T09:59:39.965Z,101147.41
2023-05-21T10:02:17.980Z,101148.78
2023-05-21T10:04:48.404Z,101134.75
2023-05-21T10:07:26.490Z,101146.53
2023-05-21T10:09:58.313Z,101141.56
2023-05-21T10:12:30.497Z,101146.84
2023-05-21T10:15:01.673Z,101139.34
2023-05-21T10:17:32.896Z,101143.94
2023-05-21T10:20:01.791Z,101130.91
2023-05-21T10:22:30.038Z,101141.34
2023-05-21T10:24:58.841Z,101144.47
2023-05-21T10:27:28.449Z,101143.31
2023-05-21T10:29:59.352Z,101143.13
2023-05-21T10:32:28.027Z,101142.38
2023-05-21T10:34:55.878Z,101134.34
2023-05-21T10:37:25.069Z,101130.03
2023-05-21T10:39:52.592Z,101128.69
2023-05-21T10:42:32.398Z,101128.56
2023-05-21T10:45:24.833Z,101129.63
2023-05-21T10:47:58.152Z,101135.66
2023-05-21T10:50:54.538Z,101122.75
2023-05-21T10:53:33.903Z,101118.13
2023-05-21T10:56:04.085Z,101130.16
2023-05-21T10:58:40.871Z,101122.03
2023-05-21T11:01:08.474Z,101121.81
2023-05-21T11:03:38.102Z,101116.50
2023-05-21T11:06:06.598Z,101114.31
2023-05-21T11:08:36.328Z,101113.09
2023-05-21T11:11:04.752Z,101111.16
2023-05-21T11:13:49.316Z,101113.75
2023-05-21T11:16:17.359Z,101116.34
2023-05-21T11:18:47.665Z,101123.13
2023-05-21T11:21:17.147Z,101115.91
2023-05-21T11:23:50.661Z,101121.19
2023-05-21T11:26:19.259Z,101111.06
2023-05-21T11:28:46.924Z,101110.81
2023-05-21T11:31:27.306Z,101117.13
2023-05-21T11:34:29.647Z,101106.81
2023-05-21T11:37:33.337Z,101110.00
2023-05-21T11:40:26.146Z,101104.94
2023-05-21T11:42:55.922Z,101106.41
2023-05-21T11:45:28.421Z,101101.59
2023-05-21T11:47:56.512Z,101093.72
2023-05-21T11:50:24.501Z,101101.84
2023-05-21T11:52:52.189Z,101093.97
2023-05-21T11:55:26.113Z,101102.13
2023-05-21T11:57:55.399Z,101094.78
2023-05-21T12:00:23.240Z,101114.63
2023-05-21T12:02:52.524Z,101103.59
2023-05-21T12:05:20.379Z,101085.28
2023-05-21T12:07:51.602Z,101106.44
2023-05-21T12:10:24.168Z,101099.72
2023-05-21T12:12:56.263Z,101100.47
2023-05-21T12:15:26.588Z,101110.50
2023-05-21T12:17:54.967Z,101098.56
2023-05-21T12:20:23.355Z,101099.50
2023-05-21T12:22:50.894Z,101104.28
2023-05-21T12:25:22.349Z,101106.03
2023-05-21T12:27:52.792Z,101093.84
2023-05-21T12:30:21.389Z,101107.41
2023-05-21T12:32:49.193Z,101102.97
2023-05-21T12:35:24.485Z,101110.88
2023-05-21T12:37:52.644Z,101113.50
2023-05-21T12:40:20.961Z,101099.25
2023-05-21T12:42:48.539Z,101100.34
2023-05-21T12:45:18.783Z,101104.44
2023-05-21T12:47:50.362Z,101096.22
2023-05-21T12:50:21.227Z,101106.38
2023-05-21T12:52:48.845Z,101094.06
2023-05-21T12:55:17.491Z,101082.94
2023-05-21T12:57:44.870Z,101085.81
2023-05-21T13:00:13.059Z,101098.69
2023-05-21T13:02:42.364Z,101093.97
2023-05-21T13:05:17.456Z,101094.78
2023-05-21T13:07:47.684Z,101091.84
2023-05-21T13:10:18.674Z,101097.41
2023-05-21T13:12:46.507Z,101090.91
2023-05-21T13:15:14.373Z,101089.09
2023-05-21T13:17:41.857Z,101087.75
2023-05-21T13:20:17.698Z,101084.56
2023-05-21T13:22:47.309Z,101084.69
2023-05-21T13:25:24.815Z,101078.09
2023-05-21T13:27:53.581Z,101072.09
2023-05-21T13:30:22.678Z,101067.63
2023-05-21T13:32:50.434Z,101074.09
2023-05-21T13:35:18.279Z,101070.09
2023-05-21T13:37:46.080Z,101062.97
2023-05-21T13:40:15.780Z,101049.09
2023-05-21T13:42:45.689Z,101050.13
2023-05-21T13:45:16.798Z,101044.91
2023-05-21T13:47:45.641Z,101043.50
2023-05-21T13:50:13.635Z,101046.34
2023-05-21T13:52:41.181Z,101047.78
2023-05-21T13:55:09.485Z,101043.13
2023-05-21T13:57:36.778Z,101054.25
2023-05-21T14:00:04.956Z,101047.13
2023-05-21T14:02:35.238Z,101043.16
2023-05-21T14:05:03.024Z,101039.06
2023-05-21T14:07:31.040Z,101041.91
2023-05-21T14:09:58.764Z,101039.63
2023-05-21T14:12:27.165Z,101041.19
2023-05-21T14:14:54.684Z,101037.31
2023-05-21T14:17:21.935Z,101039.47
2023-05-21T14:19:49.465Z,101036.06
2023-05-21T14:22:16.669Z,101043.91
2023-05-21T14:24:44.241Z,101030.78
2023-05-21T14:27:13.153Z,101031.88
2023-05-21T14:29:42.331Z,101025.97
2023-05-21T14:32:09.623Z,101036.28
2023-05-21T14:34:38.633Z,101033.66
2023-05-21T14:37:06.234Z,101034.34
2023-05-21T14:39:34.025Z,101028.63
2023-05-21T14:42:04.759Z,101028.56
2023-05-21T14:44:32.763Z,101024.09
2023-05-21T14:47:00.228Z,101026.56
2023-05-21T14:49:27.958Z,101016.66
2023-05-21T14:51:55.211Z,101029.63
2023-05-21T14:54:22.766Z,101022.44
2023-05-21T14:56:50.040Z,101026.78
2023-05-21T14:59:17.591Z,101019.28
2023-05-21T15:01:45.042Z,101017.22
2023-05-21T15:04:12.749Z,101026.03
2023-05-21T15:06:40.223Z,101016.75
2023-05-21T15:09:07.809Z,101007.56
2023-05-21T15:11:36.021Z,101015.38
2023-05-21T15:14:03.570Z,101017.38
2023-05-21T15:16:31.412Z,101014.25
2023-05-21T15:18:59.081Z,101011.97
2023-05-21T15:21:28.110Z,101019.88
2023-05-21T15:23:55.936Z,101008.03
2023-05-21T15:26:25.400Z,101019.56
2023-05-21T15:28:53.211Z,101020.31
2023-05-21T15:31:20.556Z,101016.78
2023-05-21T15:33:48.172Z,101017.13
2023-05-21T15:36:15.500Z,101010.91
2023-05-21T15:38:43.175Z,101009.88
2023-05-21T15:41:10.479Z,101008.00
2023-05-21T15:43:38.540Z,101014.00
2023-05-21T15:46:05.960Z,101011.91
2023-05-21T15:48:33.499Z,101009.72
2023-05-21T15:51:00.907Z,101014.34
2023-05-21T15:53:28.486Z,100998.28
2023-05-21T15:55:56.765Z,101006.53
2023-05-21T15:58:24.344Z,101005.72
2023-05-21T16:00:51.790Z,101001.09
2023-05-21T16:03:19.548Z,100993.06
2023-05-21T16:05:46.904Z,100995.91
2023-05-21T16:08:14.627Z,100978.44
2023-05-21T16:10:42.059Z,100988.03
2023-05-21T16:13:09.610Z,100991.22
2023-05-21T16:15:37.014Z,100986.94
2023-05-21T16:18:04.846Z,100982.34
2023-05-21T16:20:33.471Z,100990.22
2023-05-21T16:23:01.124Z,100990.41
2023-05-21T16:25:28.377Z,100988.94
2023-05-21T16:27:55.942Z,100989.53
2023-05-21T16:30:23.950Z,100987.31
2023-05-21T16:32:51.579Z,100985.38
2023-05-21T16:35:19.010Z,100982.16
2023-05-21T16:37:46.773Z,100986.72
2023-05-21T16:40:14.270Z,100978.59
2023-05-21T16:42:41.958Z,100984.47
2023-05-21T16:45:10.925Z,100992.28
2023-05-21T16:47:38.748Z,100987.63
2023-05-21T16:50:07.054Z,100972.75
2023-05-21T16:52:34.636Z,100972.00
2023-05-21T16:55:02.487Z,100969.22
2023-05-21T16:57:30.128Z,100977.53
2023-05-21T16:59:57.366Z,100962.31
2023-05-21T17:02:25.245Z,100964.91
2023-05-21T17:04:52.584Z,100963.91
2023-05-21T17:07:20.296Z,100970.59
2023-05-21T17:09:47.725Z,100960.47
2023-05-21T17:12:15.332Z,100969.44
2023-05-21T17:14:42.697Z,100970.09
2023-05-21T17:17:10.567Z,100970.88
2023-05-21T17:19:38.788Z,100974.72
2023-05-21T17:22:06.365Z,100963.00
2023-05-21T17:24:33.648Z,100973.88
2023-05-21T17:27:01.314Z,100972.19
2023-05-21T17:29:28.786Z,100973.97
2023-05-21T17:31:56.542Z,100967.56
2023-05-21T17:34:26.396Z,100972.56
2023-05-21T17:36:54.273Z,100963.91
2023-05-21T17:39:21.622Z,100965.13
2023-05-21T17:41:50.040Z,100965.50
2023-05-21T17:44:18.400Z,100962.84
2023-05-21T17:46:46.671Z,100957.00
2023-05-21T17:49:14.186Z,100957.84
2023-05-21T17:51:42.787Z,100963.19
2023-05-21T17:54:10.772Z,100962.66
2023-05-21T17:56:41.446Z,100953.13
2023-05-21T17:59:10.094Z,100958.75
2023-05-21T18:01:39.584Z,100946.16
2023-05-21T18:04:09.805Z,100954.03
2023-05-21T18:06:37.914Z,100946.88
2023-05-21T18:09:10.566Z,100942.88
2023-05-21T18:11:38.421Z,100950.38
2023-05-21T18:14:05.820Z,100942.25
2023-05-21T18:16:33.496Z,100935.38
2023-05-21T18:19:06.043Z,100943.13
2023-05-21T18:21:35.103Z,100959.28
2023-05-21T18:24:03.084Z,100959.53
2023-05-21T18:26:30.775Z,100949.66
2023-05-21T18:28:59.169Z,100953.94
2023-05-21T18:31:27.011Z,100955.69
2023-05-21T18:33:54.399Z,100946.91
2023-05-21T18:36:22.589Z,100940.72
2023-05-21T18:38:50.097Z,100956.88
2023-05-21T18:41:17.889Z,100955.72
2023-05-21T18:43:45.198Z,100950.28
2023-05-21T18:46:12.937Z,100958.94
2023-05-21T18:48:40.241Z,100961.63
2023-05-21T18:51:07.880Z,100955.88
2023-05-21T18:53:35.227Z,100961.63
2023-05-21T18:56:04.829Z,100959.59
2023-05-21T18:58:33.196Z,100962.31
2023-05-21T19:01:00.930Z,100973.16
2023-05-21T19:03:28.425Z,100969.94
2023-05-21T19:05:56.108Z,100969.06
2023-05-21T19:08:23.961Z,100973.81
2023-05-21T19:10:53.019Z,100966.34
2023-05-21T19:13:20.572Z,100975.53
2023-05-21T19:15:49.061Z,100968.03
2023-05-21T19:18:17.392Z,100976.28
2023-05-21T19:20:44.975Z,100969.38
2023-05-21T19:23:12.452Z,100972.97
2023-05-21T19:25:40.049Z,100972.13
2023-05-21T19:28:07.316Z,100967.22
2023-05-21T19:30:36.455Z,100961.78
2023-05-21T19:33:04.057Z,100969.78
2023-05-21T19:35:31.990Z,100964.00
2023-05-21T19:38:01.321Z,100966.69
2023-05-21T19:40:31.033Z,100983.50
2023-05-21T19:42:58.317Z,100985.88
2023-05-21T19:45:26.027Z,100978.72
2023-05-21T19:47:53.344Z,100979.25
2023-05-21T19:50:20.936Z,100977.41
2023-05-21T19:52:48.324Z,100973.50
2023-05-21T19:55:20.436Z,100970.75
2023-05-21T19:57:48.175Z,100963.81
2023-05-21T20:00:16.221Z,100964.00
2023-05-21T20:02:43.566Z,100972.28
2023-05-21T20:05:11.612Z,100979.03
2023-05-21T20:07:38.986Z,100973.63
2023-05-21T20:10:07.488Z,100970.38
2023-05-21T20:12:34.842Z,100964.78
2023-05-21T20:15:02.908Z,100971.44
2023-05-21T20:17:30.776Z,100975.53
2023-05-21T20:20:00.677Z,100983.00
2023-05-21T20:22:28.227Z,100983.16
2023-05-21T20:24:56.004Z,100982.31
2023-05-21T20:27:23.295Z,100979.25
2023-05-21T20:29:50.958Z,100979.72
2023-05-21T20:32:18.201Z,100978.38
2023-05-21T20:35:01.668Z,100984.31
2023-05-21T20:37:32.546Z,100972.81
2023-05-21T20:40:00.278Z,100973.66
2023-05-21T20:42:34.251Z,100975.53
2023-05-21T20:45:03.096Z,100964.16
2023-05-21T20:47:30.996Z,100968.38
2023-05-21T20:50:03.033Z,100967.72
2023-05-21T20:52:30.857Z,100964.34
2023-05-21T20:54:59.725Z,100981.50
2023-05-21T20:57:27.513Z,100976.56
2023-05-21T20:59:55.105Z,100981.78
2023-05-21T21:02:23.233Z,100978.88
2023-05-21T21:04:50.966Z,100970.59
2023-05-21T21:07:19.430Z,100969.41
2023-05-21T21:09:48.592Z,100970.44
2023-05-21T21:12:26.053Z,100987.38
2023-05-21T21:14:54.546Z,100977.38
2023-05-21T21:17:21.982Z,100977.19
2023-05-21T21:19:49.581Z,100975.13
2023-05-21T21:22:18.427Z,100967.78
2023-05-21T21:24:46.192Z,100962.41
2023-05-21T21:27:13.440Z,100962.38
2023-05-21T21:29:40.980Z,100960.84
2023-05-21T21:32:08.381Z,100967.63
2023-05-21T21:34:36.044Z,100952.50
2023-05-21T21:37:04.659Z,100963.31
2023-05-21T21:39:32.171Z,100958.59
2023-05-21T21:41:59.457Z,100952.59
2023-05-21T21:44:27.014Z,100955.47
2023-05-21T21:46:54.296Z,100947.63
2023-05-21T21:49:21.889Z,100941.44
2023-05-21T21:51:49.253Z,100960.19
2023-05-21T21:54:16.924Z,100950.84
2023-05-21T21:56:44.193Z,100943.09
2023-05-21T21:59:11.841Z,100956.66
2023-05-21T22:01:39.212Z,100943.41
2023-05-21T22:04:07.035Z,100948.88
2023-05-21T22:06:34.374Z,100945.72
2023-05-21T22:09:01.981Z,100944.75
2023-05-21T22:11:29.312Z,100938.38
2023-05-21T22:13:57.410Z,100945.56
2023-05-21T22:16:25.077Z,100939.97
2023-05-21T22:18:54.267Z,100949.75
2023-05-21T22:21:21.926Z,100936.47
2023-05-21T22:23:49.450Z,100940.16
2023-05-21T22:26:16.704Z,100933.50
2023-05-21T22:28:44.279Z,100938.97
2023-05-21T22:31:11.708Z,100940.13
2023-05-21T22:33:39.404Z,100935.66
2023-05-21T22:36:07.090Z,100939.41
2023-05-21T22:38:34.647Z,100928.34
2023-05-21T22:41:02.126Z,100935.78
2023-05-21T22:43:29.723Z,100933.50
2023-05-21T22:45:57.022Z,100927.00
2023-05-21T22:48:24.651Z,100925.44
2023-05-21T22:50:53.577Z,100927.56
2023-05-21T22:53:21.297Z,100929.41
2023-05-21T22:55:48.581Z,100923.75
2023-05-21T22:58:16.140Z,100924.78
2023-05-21T23:00:44.230Z,100922.09
2023-05-21T23:03:11.829Z,100919.00
2023-05-21T23:05:39.361Z,100918.41
2023-05-21T23:08:07.057Z,100911.41
2023-05-21T23:10:35.629Z,100913.09
2023-05-21T23:13:03.232Z,100909.00
2023-05-21T23:15:30.635Z,100914.19
2023-05-21T23:17:58.294Z,100911.63
2023-05-21T23:20:25.677Z,100915.19
2023-05-21T23:22:53.187Z,100903.81
2023-05-21T23:25:20.528Z,100903.81
2023-05-21T23:27:48.093Z,100904.66
2023-05-21T23:30:15.711Z,100908.53
2023-05-21T23:32:43.418Z,100901.66
2023-05-21T23:35:10.692Z,100908.06
2023-05-21T23:37:38.318Z,100907.69
2023-05-21T23:40:06.736Z,100914.25
2023-05-21T23:42:34.335Z,100904.50
2023-05-21T23:45:01.562Z,100902.66
2023-05-21T23:47:29.156Z,100902.50
2023-05-21T23:49:56.446Z,100900.88
2023-05-21T23:52:24.268Z,100897.88
2023-05-21T23:54:51.545Z,100899.41
2023-05-21T23:57:19.080Z,100883.81
2023-05-21T23:59:46.481Z,100892.59
